createdAt,value
2019-01-24T00:01:59.108Z,-2.20
2019-01-24T00:04:28.383Z,-2.20
2019-01-24T00:06:57.584Z,-2.20
2019-01-24T00:09:26.704Z,-2.30
2019-01-24T00:11:55.899Z,-2.40
2019-01-24T00:14:24.966Z,-2.30
2019-01-24T00:16:54.104Z,-2.20
2019-01-24T00:19:39.513Z,-2.20
2019-01-24T00:22:08.555Z,-2.20
2019-01-24T00:28:22.164Z,-2.20
2019-01-24T00:30:51.263Z,-2.20
2019-01-24T00:33:20.283Z,-2.20
2019-01-24T00:35:49.339Z,-2.30
2019-01-24T00:38:18.277Z,-2.20
2019-01-24T00:40:59.799Z,-2.20
2019-01-24T00:43:28.977Z,-2.20
2019-01-24T00:55:14.763Z,-2.20
2019-01-24T00:57:43.863Z,-2.10
2019-01-24T01:01:55.703Z,-2.20
2019-01-24T01:04:29.684Z,-2.20
2019-01-24T01:06:53.791Z,-2.20
2019-01-24T01:09:22.872Z,-2.10
2019-01-24T01:11:51.902Z,-2.20
2019-01-24T01:14:20.941Z,-2.20
2019-01-24T01:16:50.602Z,-2.20
2019-01-24T01:19:20.008Z,-2.10
2019-01-24T01:21:49.172Z,-2.10
2019-01-24T01:24:18.373Z,-2.10
2019-01-24T01:26:47.557Z,-2.10
2019-01-24T01:29:16.596Z,-2.10
2019-01-24T01:31:45.681Z,-2.10
2019-01-24T01:34:14.824Z,-2.10
2019-01-24T01:36:43.908Z,-2.10
2019-01-24T01:39:13.172Z,-2.10
2019-01-24T01:41:42.330Z,-2.10
2019-01-24T01:44:11.466Z,-2.10
2019-01-24T01:46:40.522Z,-2.10
2019-01-24T01:49:09.607Z,-2.10
2019-01-24T01:51:38.653Z,-2.10
2019-01-24T01:54:07.685Z,-2.00
2019-01-24T01:56:36.651Z,-2.10
2019-01-24T01:59:05.675Z,-2.10
2019-01-24T02:01:34.758Z,-2.10
2019-01-24T02:04:04.337Z,-2.10
2019-01-24T02:06:33.521Z,-2.10
2019-01-24T02:09:03.601Z,-2.10
2019-01-24T02:11:32.651Z,-2.10
2019-01-24T02:14:01.727Z,-2.00
2019-01-24T02:16:30.823Z,-2.00
2019-01-24T02:18:59.918Z,-2.00
2019-01-24T02:21:29.560Z,-2.10
2019-01-24T02:23:58.782Z,-2.10
2019-01-24T02:26:28.475Z,-2.10
2019-01-24T02:28:57.629Z,-2.00
2019-01-24T02:31:26.798Z,-2.10
2019-01-24T02:33:55.819Z,-2.10
2019-01-24T02:36:24.953Z,-2.00
2019-01-24T02:38:53.966Z,-2.00
2019-01-24T02:41:23.415Z,-2.00
2019-01-24T02:43:52.544Z,-2.10
2019-01-24T02:46:21.761Z,-2.00
2019-01-24T02:48:50.851Z,-2.00
2019-01-24T02:51:20.140Z,-2.00
2019-01-24T02:53:49.377Z,-2.00
2019-01-24T02:56:18.472Z,-2.10
2019-01-24T02:58:47.545Z,-2.10
2019-01-24T03:01:16.602Z,-2.10
2019-01-24T03:03:45.899Z,-2.10
2019-01-24T03:06:16.113Z,-2.00
2019-01-24T03:08:45.285Z,-2.10
2019-01-24T03:11:14.473Z,-2.10
2019-01-24T03:13:43.639Z,-2.00
2019-01-24T03:16:12.793Z,-2.00
2019-01-24T03:18:41.930Z,-2.10
2019-01-24T03:21:11.274Z,-2.10
2019-01-24T03:23:40.459Z,-2.10
2019-01-24T03:26:09.573Z,-2.10
2019-01-24T03:28:38.686Z,-2.10
2019-01-24T03:31:07.814Z,-2.10
2019-01-24T03:33:36.905Z,-2.00
2019-01-24T03:36:05.928Z,-2.00
2019-01-24T03:38:34.973Z,-2.00
2019-01-24T03:41:03.993Z,-2.10
2019-01-24T03:43:32.987Z,-2.10
2019-01-24T03:46:02.017Z,-2.10
2019-01-24T03:48:30.969Z,-2.10
2019-01-24T03:50:59.986Z,-2.20
2019-01-24T03:53:29.061Z,-2.10
2019-01-24T03:55:58.090Z,-2.10
2019-01-24T03:58:27.111Z,-2.10
2019-01-24T04:00:56.583Z,-2.10
2019-01-24T04:03:25.626Z,-2.00
2019-01-24T04:05:54.733Z,-2.10
2019-01-24T04:08:23.719Z,-2.10
2019-01-24T04:10:52.717Z,-2.10
2019-01-24T04:13:21.703Z,-2.10
2019-01-24T04:15:50.753Z,-2.10
2019-01-24T04:18:19.749Z,-2.10
2019-01-24T04:20:48.767Z,-2.10
2019-01-24T04:23:17.771Z,-2.20
2019-01-24T04:25:46.757Z,-2.10
2019-01-24T04:28:15.770Z,-2.10
2019-01-24T04:30:45.435Z,-2.10
2019-01-24T04:33:14.465Z,-2.10
2019-01-24T04:35:43.547Z,-2.00
2019-01-24T04:38:12.645Z,-2.10
2019-01-24T04:40:41.712Z,-2.10
2019-01-24T04:43:10.730Z,-2.10
2019-01-24T04:45:39.729Z,-2.00
2019-01-24T04:48:08.701Z,-2.00
2019-01-24T04:50:37.919Z,-2.10
2019-01-24T04:53:06.893Z,-2.10
2019-01-24T04:55:35.959Z,-2.20
2019-01-24T04:58:04.965Z,-2.10
2019-01-24T05:00:34.523Z,-2.20
2019-01-24T05:03:03.503Z,-2.20
2019-01-24T05:05:32.508Z,-2.20
2019-01-24T05:08:01.561Z,-2.20
2019-01-24T05:10:30.626Z,-2.30
2019-01-24T05:12:59.587Z,-2.20
2019-01-24T05:15:28.617Z,-2.20
2019-01-24T05:17:57.703Z,-2.30
2019-01-24T05:20:26.650Z,-2.30
2019-01-24T05:22:55.625Z,-2.30
2019-01-24T05:25:24.639Z,-2.20
2019-01-24T05:27:53.643Z,-2.20
2019-01-24T05:30:24.827Z,-2.30
2019-01-24T05:32:55.275Z,-2.30
2019-01-24T05:35:22.944Z,-2.30
2019-01-24T05:37:51.928Z,-2.40
2019-01-24T05:40:20.927Z,-2.40
2019-01-24T05:42:49.919Z,-2.30
2019-01-24T05:45:19.065Z,-2.30
2019-01-24T05:47:48.123Z,-2.30
2019-01-24T05:50:17.139Z,-2.20
2019-01-24T05:52:46.171Z,-2.30
2019-01-24T05:55:15.164Z,-2.30
2019-01-24T05:57:44.147Z,-2.40
2019-01-24T06:00:15.915Z,-2.30
2019-01-24T06:02:50.562Z,-2.30
2019-01-24T06:05:19.587Z,-2.30
2019-01-24T06:07:48.571Z,-2.30
2019-01-24T06:10:17.601Z,-2.30
2019-01-24T06:12:46.581Z,-2.40
2019-01-24T06:15:15.707Z,-2.40
2019-01-24T06:17:44.707Z,-2.20
2019-01-24T06:20:13.762Z,-2.30
2019-01-24T06:22:42.808Z,-2.30
2019-01-24T06:25:11.887Z,-2.30
2019-01-24T06:27:40.983Z,-2.30
2019-01-24T06:30:13.292Z,-2.30
2019-01-24T06:32:42.283Z,-2.30
2019-01-24T06:37:53.864Z,-2.20
2019-01-24T06:40:23.094Z,-2.30
2019-01-24T06:42:52.167Z,-2.30
2019-01-24T06:45:22.620Z,-2.30
2019-01-24T06:47:51.693Z,-2.30
2019-01-24T06:50:22.064Z,-2.30
2019-01-24T06:52:51.367Z,-2.30
2019-01-24T06:55:25.608Z,-2.30
2019-01-24T06:57:54.680Z,-2.30
2019-01-24T07:00:25.289Z,-2.30
2019-01-24T07:02:54.303Z,-2.40
2019-01-24T07:05:23.409Z,-2.40
2019-01-24T07:07:52.602Z,-2.40
2019-01-24T07:10:22.458Z,-2.40
2019-01-24T07:12:51.529Z,-2.40
2019-01-24T07:15:21.547Z,-2.50
2019-01-24T07:17:50.503Z,-2.40
2019-01-24T07:20:19.775Z,-2.40
2019-01-24T07:22:48.837Z,-2.40
2019-01-24T07:25:19.593Z,-2.40
2019-01-24T07:27:49.029Z,-2.40
2019-01-24T07:30:18.131Z,-2.40
2019-01-24T07:32:47.221Z,-2.30
2019-01-24T07:35:16.665Z,-2.50
2019-01-24T07:37:46.040Z,-2.40
2019-01-24T07:40:16.005Z,-2.50
2019-01-24T07:42:45.049Z,-2.40
2019-01-24T07:45:17.266Z,-2.50
2019-01-24T07:47:46.366Z,-2.50
2019-01-24T07:50:15.360Z,-2.50
2019-01-24T07:52:44.414Z,-2.40
2019-01-24T07:55:13.425Z,-2.40
2019-01-24T07:57:42.612Z,-2.50
2019-01-24T08:00:15.809Z,-2.50
2019-01-24T08:02:44.966Z,-2.40
2019-01-24T08:05:14.065Z,-2.30
2019-01-24T08:07:43.107Z,-2.30
2019-01-24T08:10:13.453Z,-2.30
2019-01-24T08:12:42.760Z,-2.30
2019-01-24T08:15:13.111Z,-2.30
2019-01-24T08:17:42.274Z,-2.40
2019-01-24T08:20:14.072Z,-2.40
2019-01-24T08:22:43.090Z,-2.40
2019-01-24T08:25:12.140Z,-2.40
2019-01-24T08:27:41.188Z,-2.40
2019-01-24T08:30:15.304Z,-2.40
2019-01-24T08:32:44.336Z,-2.40
2019-01-24T08:35:13.835Z,-2.20
2019-01-24T08:37:44.951Z,-2.20
2019-01-24T08:40:14.792Z,-2.20
2019-01-24T08:42:45.156Z,-2.30
2019-01-24T08:45:14.459Z,-2.20
2019-01-24T08:47:44.328Z,-2.30
2019-01-24T08:50:15.792Z,-2.30
2019-01-24T08:52:45.311Z,-2.30
2019-01-24T08:55:29.693Z,-2.30
2019-01-24T08:58:02.686Z,-2.40
2019-01-24T09:00:32.251Z,-2.30
2019-01-24T09:03:01.282Z,-2.30
2019-01-24T09:05:31.682Z,-2.30
2019-01-24T09:08:00.710Z,-2.30
2019-01-24T09:10:33.598Z,-2.30
2019-01-24T09:13:02.716Z,-2.20
2019-01-24T09:15:31.911Z,-2.20
2019-01-24T09:18:01.238Z,-2.30
2019-01-24T09:20:30.244Z,-2.40
2019-01-24T09:22:59.366Z,-2.40
2019-01-24T09:25:28.389Z,-2.30
2019-01-24T09:27:57.518Z,-2.20
2019-01-24T09:30:27.002Z,-2.10
2019-01-24T09:32:56.219Z,-2.20
2019-01-24T09:35:25.408Z,-2.20
2019-01-24T09:37:56.488Z,-2.20
2019-01-24T09:40:25.615Z,-2.20
2019-01-24T09:43:00.566Z,-2.20
2019-01-24T09:45:29.786Z,-2.20
2019-01-24T09:48:00.248Z,-2.20
2019-01-24T09:50:29.562Z,-2.10
2019-01-24T09:52:58.899Z,-2.00
2019-01-24T09:55:28.236Z,-2.00
2019-01-24T09:57:57.667Z,-2.00
2019-01-24T10:00:28.899Z,-2.10
2019-01-24T10:02:58.258Z,-2.00
2019-01-24T10:05:27.626Z,-2.00
2019-01-24T10:07:56.776Z,-2.10
2019-01-24T10:10:25.975Z,-2.10
2019-01-24T10:12:55.854Z,-2.20
2019-01-24T10:15:24.979Z,-2.10
2019-01-24T10:17:54.026Z,-2.10
2019-01-24T10:20:24.360Z,-2.00
2019-01-24T10:22:53.498Z,-1.90
2019-01-24T10:25:24.973Z,-1.90
2019-01-24T10:27:54.649Z,-1.90
2019-01-24T10:30:25.165Z,-1.90
2019-01-24T10:32:54.320Z,-2.00
2019-01-24T10:35:23.392Z,-2.00
2019-01-24T10:37:52.518Z,-2.00
2019-01-24T10:40:23.295Z,-2.10
2019-01-24T10:42:52.454Z,-2.10
2019-01-24T10:45:22.191Z,-2.10
2019-01-24T10:47:52.126Z,-2.10
2019-01-24T10:50:22.481Z,-2.00
2019-01-24T10:52:51.935Z,-2.00
2019-01-24T10:55:22.916Z,-2.10
2019-01-24T10:57:52.648Z,-2.10
2019-01-24T11:00:25.086Z,-2.20
2019-01-24T11:02:54.494Z,-2.10
2019-01-24T11:05:23.563Z,-2.00
2019-01-24T11:07:52.833Z,-1.90
2019-01-24T11:10:28.135Z,-2.00
2019-01-24T11:12:57.229Z,-2.00
2019-01-24T11:15:26.968Z,-2.10
2019-01-24T11:17:56.743Z,-2.10
2019-01-24T11:20:25.913Z,-2.00
2019-01-24T11:22:54.998Z,-1.90
2019-01-24T11:25:24.126Z,-1.90
2019-01-24T11:27:53.227Z,-1.80
2019-01-24T11:30:24.923Z,-2.00
2019-01-24T11:32:53.918Z,-2.10
2019-01-24T11:35:24.850Z,-2.00
2019-01-24T11:37:53.934Z,-2.00
2019-01-24T11:40:23.350Z,-2.00
2019-01-24T11:42:52.663Z,-2.20
2019-01-24T11:45:23.856Z,-2.30
2019-01-24T11:47:53.430Z,-2.40
2019-01-24T11:50:23.083Z,-2.30
2019-01-24T11:52:52.271Z,-2.30
2019-01-24T11:55:21.614Z,-2.20
2019-01-24T11:57:50.998Z,-2.20
2019-01-24T12:00:25.334Z,-2.20
2019-01-24T12:02:54.835Z,-2.20
2019-01-24T12:05:23.982Z,-2.40
2019-01-24T12:07:53.087Z,-2.40
2019-01-24T12:10:23.341Z,-2.40
2019-01-24T12:12:52.876Z,-2.60
2019-01-24T12:15:23.086Z,-2.70
2019-01-24T12:17:52.453Z,-2.70
2019-01-24T12:20:22.509Z,-2.60
2019-01-24T12:22:51.522Z,-2.70
2019-01-24T12:25:20.622Z,-2.70
2019-01-24T12:27:49.755Z,-2.80
2019-01-24T12:30:21.102Z,-2.70
2019-01-24T12:32:50.202Z,-2.70
2019-01-24T12:35:20.185Z,-2.70
2019-01-24T12:37:49.358Z,-2.70
2019-01-24T12:40:18.497Z,-2.70
2019-01-24T12:42:48.148Z,-2.90
2019-01-24T12:45:19.519Z,-3.10
2019-01-24T12:47:48.764Z,-3.10
2019-01-24T12:50:17.934Z,-3.00
2019-01-24T12:52:47.042Z,-3.00
2019-01-24T12:55:16.106Z,-3.00
2019-01-24T12:57:45.267Z,-2.90
2019-01-24T13:00:17.286Z,-3.10
2019-01-24T13:02:46.385Z,-2.90
2019-01-24T13:05:15.563Z,-2.90
2019-01-24T13:07:44.691Z,-2.90
2019-01-24T13:10:15.974Z,-2.90
2019-01-24T13:12:45.078Z,-2.90
2019-01-24T13:15:14.467Z,-2.90
2019-01-24T13:17:43.569Z,-3.00
2019-01-24T13:20:13.518Z,-2.90
2019-01-24T13:22:42.616Z,-2.90
2019-01-24T13:25:14.387Z,-2.80
2019-01-24T13:27:43.435Z,-2.90
2019-01-24T13:30:15.097Z,-3.00
2019-01-24T13:32:44.126Z,-3.00
2019-01-24T13:35:13.332Z,-3.00
2019-01-24T13:37:42.596Z,-2.90
2019-01-24T13:40:14.029Z,-2.90
2019-01-24T13:42:43.183Z,-2.90
2019-01-24T13:45:14.522Z,-2.90
2019-01-24T13:47:43.667Z,-3.00
2019-01-24T13:50:14.027Z,-3.00
2019-01-24T13:52:43.230Z,-3.00
2019-01-24T13:55:12.435Z,-3.00
2019-01-24T13:57:41.558Z,-2.90
2019-01-24T14:00:14.448Z,-2.80
2019-01-24T14:02:43.647Z,-2.80
2019-01-24T14:05:13.688Z,-2.90
2019-01-24T14:07:42.853Z,-2.90
2019-01-24T14:10:12.880Z,-2.80
2019-01-24T14:12:42.106Z,-2.80
2019-01-24T14:15:12.698Z,-2.90
2019-01-24T14:17:41.958Z,-2.90
2019-01-24T14:20:13.312Z,-3.00
2019-01-24T14:22:42.446Z,-3.00
2019-01-24T14:25:13.812Z,-3.00
2019-01-24T14:27:43.087Z,-2.90
2019-01-24T14:30:17.235Z,-2.80
2019-01-24T14:32:46.261Z,-2.90
2019-01-24T14:35:15.416Z,-2.80
2019-01-24T14:37:44.616Z,-2.80
2019-01-24T14:40:13.916Z,-2.80
2019-01-24T14:42:42.915Z,-2.90
2019-01-24T14:45:14.109Z,-2.90
2019-01-24T14:47:43.225Z,-2.80
2019-01-24T14:50:16.244Z,-2.80
2019-01-24T14:52:45.341Z,-2.70
2019-01-24T14:55:14.716Z,-2.70
2019-01-24T14:57:44.330Z,-2.80
2019-01-24T15:00:20.705Z,-2.80
2019-01-24T15:02:49.712Z,-2.80
2019-01-24T15:05:19.011Z,-2.70
2019-01-24T15:07:48.025Z,-2.70
2019-01-24T15:10:17.148Z,-2.70
2019-01-24T15:12:50.127Z,-2.70
2019-01-24T15:15:20.014Z,-2.60
2019-01-24T15:17:49.215Z,-2.60
2019-01-24T15:20:18.317Z,-2.70
2019-01-24T15:22:47.432Z,-2.80
2019-01-24T15:25:16.592Z,-2.80
2019-01-24T15:27:45.889Z,-2.80
2019-01-24T15:30:29.424Z,-2.70
2019-01-24T15:32:58.669Z,-2.70
2019-01-24T15:35:27.871Z,-2.70
2019-01-24T15:37:57.866Z,-2.70
2019-01-24T15:40:29.434Z,-2.70
2019-01-24T15:42:58.677Z,-2.70
2019-01-24T15:45:27.866Z,-2.70
2019-01-24T15:47:57.103Z,-2.60
2019-01-24T15:50:26.807Z,-2.60
2019-01-24T15:52:56.096Z,-2.60
2019-01-24T15:55:25.349Z,-2.60
2019-01-24T15:57:54.701Z,-2.70
2019-01-24T16:00:26.857Z,-2.70
2019-01-24T16:03:05.027Z,-2.70
2019-01-24T16:05:34.023Z,-2.70
2019-01-24T16:08:03.135Z,-2.70
2019-01-24T16:10:32.188Z,-2.70
2019-01-24T16:13:01.297Z,-2.70
2019-01-24T16:15:32.263Z,-2.50
2019-01-24T16:18:01.487Z,-2.60
2019-01-24T16:20:30.625Z,-2.50
2019-01-24T16:22:59.685Z,-2.50
2019-01-24T16:25:30.102Z,-2.70
2019-01-24T16:27:59.389Z,-2.70
2019-01-24T16:30:30.020Z,-2.70
2019-01-24T16:32:59.218Z,-2.60
2019-01-24T16:35:28.336Z,-2.50
2019-01-24T16:37:57.428Z,-2.50
2019-01-24T16:40:27.112Z,-2.50
2019-01-24T16:42:56.218Z,-2.50
2019-01-24T16:45:26.756Z,-2.50
2019-01-24T16:47:55.970Z,-2.50
2019-01-24T16:50:25.252Z,-2.60
2019-01-24T16:52:54.258Z,-2.70
2019-01-24T16:55:23.487Z,-2.70
2019-01-24T16:57:53.379Z,-2.70
2019-01-24T17:00:26.949Z,-2.60
2019-01-24T17:02:56.090Z,-2.60
2019-01-24T17:05:25.299Z,-2.70
2019-01-24T17:07:54.374Z,-2.60
2019-01-24T17:10:23.449Z,-2.60
2019-01-24T17:12:52.666Z,-2.70
2019-01-24T17:15:22.023Z,-2.70
2019-01-24T17:17:51.242Z,-2.70
2019-01-24T17:20:23.983Z,-2.70
2019-01-24T17:22:53.947Z,-2.70
2019-01-24T17:25:25.550Z,-2.80
2019-01-24T17:27:55.365Z,-2.80
2019-01-24T17:30:26.170Z,-2.70
2019-01-24T17:32:55.219Z,-2.70
2019-01-24T17:35:24.464Z,-2.60
2019-01-24T17:37:53.706Z,-2.70
2019-01-24T17:40:24.680Z,-2.70
2019-01-24T17:42:53.739Z,-2.70
2019-01-24T17:45:22.850Z,-2.60
2019-01-24T17:47:52.643Z,-2.70
2019-01-24T17:50:21.817Z,-2.80
2019-01-24T17:52:51.037Z,-2.80
2019-01-24T17:55:25.201Z,-2.70
2019-01-24T17:57:54.388Z,-2.70
2019-01-24T18:00:23.583Z,-2.60
2019-01-24T18:02:52.812Z,-2.60
2019-01-24T18:05:22.104Z,-2.70
2019-01-24T18:07:51.426Z,-2.70
2019-01-24T18:10:23.241Z,-2.70
2019-01-24T18:12:52.657Z,-2.70
2019-01-24T18:15:24.110Z,-2.70
2019-01-24T18:17:53.483Z,-2.70
2019-01-24T18:20:24.748Z,-2.80
2019-01-24T18:22:53.744Z,-2.80
2019-01-24T18:25:22.910Z,-2.70
2019-01-24T18:27:52.235Z,-2.70
2019-01-24T18:30:23.473Z,-2.80
2019-01-24T18:32:52.604Z,-2.70
2019-01-24T18:35:21.704Z,-2.70
2019-01-24T18:37:50.821Z,-2.80
2019-01-24T18:40:21.339Z,-2.80
2019-01-24T18:42:50.412Z,-2.80
2019-01-24T18:48:26.779Z,-2.70
2019-01-24T18:50:55.785Z,-2.80
2019-01-24T18:53:25.193Z,-2.80
2019-01-24T18:55:54.486Z,-2.80
2019-01-24T18:58:23.622Z,-2.80
2019-01-24T19:00:52.980Z,-2.70
2019-01-24T19:03:22.220Z,-2.80
2019-01-24T19:05:51.282Z,-2.80
2019-01-24T19:08:20.338Z,-2.90
2019-01-24T19:10:49.433Z,-2.80
2019-01-24T19:13:18.603Z,-2.90
2019-01-24T19:15:49.166Z,-2.90
2019-01-24T19:18:18.227Z,-2.90
2019-01-24T19:20:47.436Z,-2.90
2019-01-24T19:23:17.094Z,-2.80
2019-01-24T19:25:46.284Z,-2.70
2019-01-24T19:28:17.279Z,-2.80
2019-01-24T19:30:47.408Z,-2.90
2019-01-24T19:33:17.007Z,-2.90
2019-01-24T19:35:46.388Z,-2.90
2019-01-24T19:38:15.852Z,-2.80
2019-01-24T19:40:44.922Z,-2.80
2019-01-24T19:43:13.902Z,-2.70
2019-01-24T19:45:44.096Z,-2.70
2019-01-24T19:48:12.174Z,-2.70
2019-01-24T19:50:41.807Z,-2.80
2019-01-24T19:53:10.882Z,-2.90
2019-01-24T19:55:39.944Z,-2.80
2019-01-24T19:58:09.244Z,-2.80
2019-01-24T20:00:38.416Z,-2.80
2019-01-24T20:03:07.439Z,-2.70
2019-01-24T20:05:36.630Z,-2.70
2019-01-24T20:08:05.644Z,-2.80
2019-01-24T20:10:34.696Z,-2.80
2019-01-24T20:13:03.913Z,-2.80
2019-01-24T20:15:33.918Z,-2.80
2019-01-24T20:18:02.164Z,-2.90
2019-01-24T20:20:32.268Z,-2.80
2019-01-24T20:23:02.024Z,-2.80
2019-01-24T20:25:32.555Z,-2.80
2019-01-24T20:28:05.290Z,-2.70
2019-01-24T20:30:42.576Z,-2.80
2019-01-24T20:33:19.706Z,-2.80
2019-01-24T20:36:05.595Z,-2.80
2019-01-24T20:48:21.551Z,-3.00
2019-01-24T20:51:00.624Z,-2.90
2019-01-24T20:56:33.759Z,-2.80
2019-01-24T20:59:03.986Z,-2.90
2019-01-24T21:01:34.903Z,-2.90
2019-01-24T21:04:04.485Z,-2.80
2019-01-24T21:06:35.320Z,-2.80
2019-01-24T21:09:07.321Z,-2.80
2019-01-24T21:11:39.077Z,-2.90
2019-01-24T21:14:15.172Z,-2.90
2019-01-24T21:16:47.881Z,-2.80
2019-01-24T21:19:21.463Z,-2.80
2019-01-24T21:21:52.054Z,-2.80
2019-01-24T21:24:24.960Z,-2.80
2019-01-24T21:27:05.753Z,-2.80
2019-01-24T21:29:38.071Z,-2.80
2019-01-24T21:32:10.795Z,-2.90
2019-01-24T21:34:40.054Z,-2.90
2019-01-24T21:37:10.592Z,-2.90
2019-01-24T21:39:39.355Z,-2.80
2019-01-24T21:42:08.676Z,-2.80
2019-01-24T21:44:37.841Z,-2.90
2019-01-24T21:47:07.269Z,-2.80
2019-01-24T21:49:36.682Z,-2.80
2019-01-24T21:52:06.072Z,-2.80
2019-01-24T21:54:35.439Z,-2.80
2019-01-24T21:57:04.912Z,-2.70
2019-01-24T21:59:34.296Z,-2.80
2019-01-24T22:02:03.485Z,-2.80
2019-01-24T22:04:32.658Z,-2.70
2019-01-24T22:07:01.584Z,-2.70
2019-01-24T22:09:30.650Z,-2.70
2019-01-24T22:11:59.729Z,-2.60
2019-01-24T22:14:28.972Z,-2.70
2019-01-24T22:16:58.116Z,-2.60
2019-01-24T22:19:27.143Z,-2.60
2019-01-24T22:21:56.177Z,-2.60
2019-01-24T22:24:25.169Z,-2.60
2019-01-24T22:26:54.493Z,-2.50
2019-01-24T22:29:23.558Z,-2.60
2019-01-24T22:31:52.666Z,-2.70
2019-01-24T22:34:22.857Z,-2.70
2019-01-24T22:36:52.127Z,-2.70
2019-01-24T22:39:21.319Z,-2.70
2019-01-24T22:41:50.629Z,-2.60
2019-01-24T22:47:08.225Z,-2.70
2019-01-24T22:49:37.646Z,-2.70
2019-01-24T22:52:06.926Z,-2.60
2019-01-24T22:54:36.359Z,-2.60
2019-01-24T22:57:05.783Z,-2.60
2019-01-24T22:59:35.191Z,-2.60
2019-01-24T23:02:10.255Z,-2.60
2019-01-24T23:04:39.418Z,-2.60
2019-01-24T23:07:08.667Z,-2.50
2019-01-24T23:09:43.881Z,-2.50
2019-01-24T23:12:07.032Z,-2.60
2019-01-24T23:14:36.126Z,-2.60
2019-01-24T23:17:05.341Z,-2.60
2019-01-24T23:19:34.485Z,-2.60
2019-01-24T23:22:03.854Z,-2.60
2019-01-24T23:24:33.007Z,-2.60
2019-01-24T23:27:02.111Z,-2.60
2019-01-24T23:29:31.299Z,-2.60
2019-01-24T23:32:00.563Z,-2.60
2019-01-24T23:34:29.694Z,-2.60
2019-01-24T23:37:01.303Z,-2.60
2019-01-24T23:39:30.801Z,-2.70
2019-01-24T23:42:00.045Z,-2.80
2019-01-24T23:44:29.330Z,-2.80
2019-01-24T23:46:58.546Z,-2.80
2019-01-24T23:49:34.347Z,-2.80
2019-01-24T23:54:42.373Z,-2.80
2019-01-24T23:57:11.676Z,-2.90
2019-01-24T23:59:40.894Z,-2.80
